createdAt,value
2019-01-09T00:01:14.977Z,5.13
2019-01-09T00:04:03.880Z,2.97
2019-01-09T00:07:13.336Z,4.83
2019-01-09T00:10:03.213Z,6.83
2019-01-09T00:12:56.564Z,3.23
2019-01-09T00:15:48.082Z,2.40
2019-01-09T00:18:36.548Z,3.07
2019-01-09T00:21:30.384Z,2.50
2019-01-09T00:24:21.013Z,2.40
2019-01-09T00:27:18.589Z,3.63
2019-01-09T00:30:06.343Z,2.80
2019-01-09T00:32:59.668Z,5.20
2019-01-09T00:35:47.805Z,4.73
2019-01-09T00:38:35.760Z,5.60
2019-01-09T00:41:45.512Z,5.10
2019-01-09T00:44:35.396Z,3.77
2019-01-09T00:47:30.501Z,4.53
2019-01-09T00:50:27.228Z,2.23
2019-01-09T00:53:53.073Z,6.00
2019-01-09T00:56:47.653Z,5.13
2019-01-09T00:59:59.032Z,3.37
2019-01-09T01:03:36.849Z,4.00
2019-01-09T01:07:09.172Z,5.13
2019-01-09T01:10:46.729Z,4.70
2019-01-09T01:14:15.207Z,6.33
2019-01-09T01:17:34.037Z,2.40
2019-01-09T01:21:10.733Z,4.10
2019-01-09T01:24:47.423Z,3.10
2019-01-09T01:28:09.472Z,2.87
2019-01-09T01:31:31.420Z,2.50
2019-01-09T01:34:50.280Z,3.13
2019-01-09T01:38:05.846Z,4.23
2019-01-09T01:41:22.052Z,2.47
2019-01-09T01:44:44.092Z,3.67
2019-01-09T01:48:09.833Z,3.43
2019-01-09T01:51:39.132Z,3.57
2019-01-09T01:55:20.707Z,3.17
2019-01-09T01:58:59.247Z,2.23
2019-01-09T02:02:45.016Z,2.87
2019-01-09T02:06:03.706Z,3.00
2019-01-09T02:09:39.768Z,2.40
2019-01-09T02:13:01.475Z,8.23
2019-01-09T02:16:31.078Z,3.57
2019-01-09T02:19:47.519Z,4.53
2019-01-09T02:23:12.101Z,5.23
2019-01-09T02:26:28.927Z,6.33
2019-01-09T02:29:53.608Z,5.43
2019-01-09T02:32:42.059Z,7.50
2019-01-09T02:35:32.139Z,4.93
2019-01-09T02:38:19.724Z,4.67
2019-01-09T02:41:07.478Z,3.57
2019-01-09T02:44:01.585Z,4.10
2019-01-09T02:46:51.373Z,4.87
2019-01-09T02:49:40.124Z,2.40
2019-01-09T02:52:32.468Z,4.73
2019-01-09T02:55:30.348Z,2.90
2019-01-09T02:58:17.821Z,3.00
2019-01-09T03:01:08.984Z,5.60
2019-01-09T03:04:19.036Z,3.20
2019-01-09T03:07:15.897Z,5.67
2019-01-09T03:10:05.149Z,9.43
2019-01-09T03:13:08.345Z,5.03
2019-01-09T03:15:58.125Z,3.47
2019-01-09T03:18:50.480Z,4.73
2019-01-09T03:21:42.405Z,3.47
2019-01-09T03:24:32.068Z,5.33
2019-01-09T03:27:21.223Z,6.10
2019-01-09T03:30:16.658Z,2.50
2019-01-09T03:33:06.542Z,6.33
2019-01-09T03:36:02.887Z,4.63
2019-01-09T03:38:58.792Z,5.37
2019-01-09T03:41:48.057Z,6.17
2019-01-09T03:44:40.004Z,10.60
2019-01-09T03:47:30.504Z,5.03
2019-01-09T03:50:20.585Z,2.80
2019-01-09T03:53:14.664Z,2.50
2019-01-09T03:56:03.024Z,2.77
2019-01-09T03:58:53.093Z,6.70
2019-01-09T04:01:43.738Z,4.07
2019-01-09T04:04:33.772Z,3.30
2019-01-09T04:07:32.784Z,4.70
2019-01-09T04:10:30.565Z,6.53
2019-01-09T04:13:20.734Z,3.90
2019-01-09T04:16:15.330Z,2.27
2019-01-09T04:22:12.520Z,4.60
2019-01-09T04:25:00.660Z,3.17
2019-01-09T04:27:53.930Z,5.70
2019-01-09T04:30:44.117Z,3.10
2019-01-09T04:33:32.565Z,3.07
2019-01-09T04:36:24.875Z,6.83
2019-01-09T04:39:12.829Z,2.57
2019-01-09T04:42:00.881Z,4.00
2019-01-09T04:44:52.187Z,4.70
2019-01-09T04:47:41.563Z,3.40
2019-01-09T04:50:47.827Z,2.50
2019-01-09T04:53:52.977Z,3.17
2019-01-09T04:56:45.302Z,2.10
2019-01-09T04:59:51.384Z,2.83
2019-01-09T05:02:41.654Z,4.40
2019-01-09T05:05:54.388Z,4.43
2019-01-09T05:08:56.442Z,3.57
2019-01-09T05:11:46.631Z,5.20
2019-01-09T05:14:36.633Z,3.23
2019-01-09T05:17:39.185Z,5.27
2019-01-09T05:20:27.049Z,6.40
2019-01-09T05:23:16.620Z,2.30
2019-01-09T05:26:09.457Z,6.53
2019-01-09T05:28:59.749Z,6.90
2019-01-09T05:31:47.804Z,5.20
2019-01-09T05:34:40.386Z,3.50
2019-01-09T05:37:38.624Z,3.60
2019-01-09T05:40:26.277Z,3.23
2019-01-09T05:43:14.006Z,4.03
2019-01-09T05:46:01.487Z,6.13
2019-01-09T05:48:48.881Z,7.80
2019-01-09T05:51:37.440Z,4.33
2019-01-09T05:54:24.939Z,3.10
2019-01-09T05:57:12.518Z,4.77
2019-01-09T06:00:00.478Z,4.33
2019-01-09T06:02:48.058Z,4.87
2019-01-09T06:05:35.590Z,4.87
2019-01-09T06:08:22.727Z,4.93
2019-01-09T06:11:10.246Z,5.27
2019-01-09T06:13:57.386Z,7.13
2019-01-09T06:16:44.798Z,6.43
2019-01-09T06:19:32.247Z,3.43
2019-01-09T06:22:19.785Z,7.43
2019-01-09T06:25:07.150Z,5.33
2019-01-09T06:27:54.402Z,5.50
2019-01-09T06:30:41.779Z,6.93
2019-01-09T06:33:29.401Z,5.97
2019-01-09T06:36:16.628Z,6.87
2019-01-09T06:39:06.164Z,4.43
2019-01-09T06:41:55.069Z,5.97
2019-01-09T06:44:42.565Z,8.10
2019-01-09T06:47:30.304Z,3.43
2019-01-09T06:50:19.313Z,3.57
2019-01-09T06:53:07.121Z,5.17
2019-01-09T06:55:54.776Z,5.07
2019-01-09T06:58:42.429Z,6.10
2019-01-09T07:01:30.170Z,4.87
2019-01-09T07:04:17.851Z,4.43
2019-01-09T07:07:05.798Z,3.77
2019-01-09T07:09:53.465Z,3.47
2019-01-09T07:12:41.329Z,3.30
2019-01-09T07:15:29.011Z,2.00
2019-01-09T07:18:16.850Z,1.73
2019-01-09T07:21:04.521Z,1.97
2019-01-09T07:23:52.222Z,2.20
2019-01-09T07:26:39.683Z,2.30
2019-01-09T07:29:27.569Z,2.20
2019-01-09T07:32:15.483Z,3.30
2019-01-09T07:35:03.494Z,2.30
2019-01-09T07:37:51.197Z,3.53
2019-01-09T07:40:38.796Z,2.30
2019-01-09T07:43:26.727Z,3.87
2019-01-09T07:46:14.184Z,3.90
2019-01-09T07:49:01.317Z,2.90
2019-01-09T07:51:48.970Z,4.97
2019-01-09T07:54:36.563Z,3.50
2019-01-09T07:57:24.150Z,7.00
2019-01-09T08:00:11.892Z,5.77
2019-01-09T08:02:59.626Z,4.33
2019-01-09T08:05:47.192Z,4.60
2019-01-09T08:08:34.861Z,3.53
2019-01-09T08:11:22.712Z,4.90
2019-01-09T08:14:10.219Z,4.57
2019-01-09T08:16:57.556Z,4.73
2019-01-09T08:19:45.195Z,5.23
2019-01-09T08:22:33.139Z,4.33
2019-01-09T08:25:20.619Z,3.47
2019-01-09T08:28:07.795Z,5.37
2019-01-09T08:30:55.863Z,6.73
2019-01-09T08:33:43.110Z,10.10
2019-01-09T08:36:30.371Z,6.73
2019-01-09T08:39:17.672Z,8.53
2019-01-09T08:42:05.179Z,5.47
2019-01-09T08:44:52.916Z,4.90
2019-01-09T08:47:40.579Z,6.53
2019-01-09T08:50:28.231Z,2.53
2019-01-09T08:53:15.781Z,5.93
2019-01-09T08:56:03.260Z,2.83
2019-01-09T08:58:50.899Z,3.13
2019-01-09T09:01:38.349Z,3.97
2019-01-09T09:04:25.766Z,5.40
2019-01-09T09:07:13.711Z,4.00
2019-01-09T09:10:01.415Z,5.37
2019-01-09T09:12:48.827Z,2.63
2019-01-09T09:15:35.919Z,6.03
2019-01-09T09:18:23.302Z,4.40
2019-01-09T09:21:10.473Z,3.60
2019-01-09T09:23:57.799Z,11.00
2019-01-09T09:26:45.501Z,6.97
2019-01-09T09:29:32.845Z,8.03
2019-01-09T09:32:20.361Z,9.90
2019-01-09T09:35:07.848Z,5.10
2019-01-09T09:37:55.481Z,6.67
2019-01-09T09:40:42.687Z,4.40
2019-01-09T09:43:30.301Z,5.53
2019-01-09T09:46:18.050Z,6.60
2019-01-09T09:49:05.652Z,3.57
2019-01-09T09:51:53.408Z,6.37
2019-01-09T09:54:41.347Z,7.13
2019-01-09T09:57:28.534Z,5.00
2019-01-09T10:00:18.925Z,4.40
2019-01-09T10:03:06.514Z,4.37
2019-01-09T10:05:54.199Z,9.70
2019-01-09T10:08:41.822Z,9.10
2019-01-09T10:11:29.247Z,6.03
2019-01-09T10:14:16.598Z,8.43
2019-01-09T10:17:03.764Z,5.33
2019-01-09T10:19:51.642Z,4.83
2019-01-09T10:22:39.403Z,4.20
2019-01-09T10:25:27.627Z,6.43
2019-01-09T10:28:15.233Z,3.13
2019-01-09T10:31:02.941Z,4.27
2019-01-09T10:33:50.349Z,4.27
2019-01-09T10:36:38.062Z,5.07
2019-01-09T10:39:25.269Z,3.90
2019-01-09T10:42:12.661Z,4.20
2019-01-09T10:45:00.816Z,5.63
2019-01-09T10:47:48.546Z,6.50
2019-01-09T10:50:36.633Z,2.30
2019-01-09T10:53:23.874Z,3.20
2019-01-09T10:56:12.548Z,3.00
2019-01-09T10:59:00.247Z,7.80
2019-01-09T11:01:47.341Z,6.33
2019-01-09T11:04:34.925Z,4.33
2019-01-09T11:07:22.584Z,4.83
2019-01-09T11:10:10.685Z,6.80
2019-01-09T11:12:58.190Z,8.97
2019-01-09T11:15:45.576Z,5.43
2019-01-09T11:18:33.585Z,8.53
2019-01-09T11:21:20.887Z,8.60
2019-01-09T11:24:08.503Z,8.80
2019-01-09T11:26:56.864Z,7.50
2019-01-09T11:29:44.205Z,8.03
2019-01-09T11:32:31.836Z,10.27
2019-01-09T11:35:20.889Z,6.70
2019-01-09T11:38:08.694Z,8.13
2019-01-09T11:40:56.306Z,8.20
2019-01-09T11:43:43.717Z,6.90
2019-01-09T11:46:31.277Z,8.07
2019-01-09T11:49:18.766Z,10.10
2019-01-09T11:52:06.612Z,6.00
2019-01-09T11:54:54.317Z,14.83
2019-01-09T11:57:41.996Z,13.97
2019-01-09T12:00:30.049Z,7.93
2019-01-09T12:03:17.275Z,11.20
2019-01-09T12:06:05.151Z,9.47
2019-01-09T12:08:52.917Z,14.07
2019-01-09T12:11:40.704Z,12.63
2019-01-09T12:14:28.318Z,11.13
2019-01-09T12:17:16.028Z,10.10
2019-01-09T12:20:03.829Z,6.93
2019-01-09T12:22:51.499Z,4.43
2019-01-09T12:25:38.851Z,10.40
2019-01-09T12:28:26.581Z,5.53
2019-01-09T12:31:13.918Z,6.30
2019-01-09T12:34:01.321Z,6.37
2019-01-09T12:36:49.112Z,4.17
2019-01-09T12:39:36.493Z,8.03
2019-01-09T12:42:23.538Z,6.83
2019-01-09T12:45:12.074Z,6.57
2019-01-09T12:47:59.573Z,4.87
2019-01-09T12:50:46.848Z,4.03
2019-01-09T12:53:34.394Z,6.00
2019-01-09T12:56:21.514Z,8.17
2019-01-09T12:59:09.167Z,7.27
2019-01-09T13:01:57.065Z,4.53
2019-01-09T13:04:44.631Z,7.57
2019-01-09T13:07:32.297Z,10.53
2019-01-09T13:10:20.033Z,6.57
2019-01-09T13:13:07.204Z,6.23
2019-01-09T13:15:54.829Z,7.53
2019-01-09T13:18:42.398Z,5.07
2019-01-09T13:21:29.932Z,8.80
2019-01-09T13:24:17.508Z,6.50
2019-01-09T13:27:05.084Z,3.63
2019-01-09T13:29:52.912Z,7.63
2019-01-09T13:32:40.382Z,6.67
2019-01-09T13:35:27.757Z,4.60
2019-01-09T13:38:19.800Z,11.37
2019-01-09T13:41:10.108Z,4.50
2019-01-09T13:43:57.577Z,5.70
2019-01-09T13:46:45.450Z,4.83
2019-01-09T13:49:33.026Z,5.73
2019-01-09T13:52:41.251Z,4.00
2019-01-09T13:55:29.187Z,5.07
2019-01-09T13:58:16.298Z,5.57
2019-01-09T14:01:04.212Z,6.63
2019-01-09T14:04:24.884Z,5.23
2019-01-09T14:07:20.707Z,5.77
2019-01-09T14:10:25.530Z,6.27
2019-01-09T14:13:14.693Z,5.87
2019-01-09T14:16:02.876Z,4.37
2019-01-09T14:18:55.292Z,3.63
2019-01-09T14:21:44.063Z,4.53
2019-01-09T14:24:36.896Z,4.93
2019-01-09T14:27:50.416Z,3.27
2019-01-09T14:30:44.441Z,2.37
2019-01-09T14:33:57.063Z,2.93
2019-01-09T14:36:49.665Z,5.27
2019-01-09T14:39:48.036Z,3.97
2019-01-09T14:42:36.824Z,3.50
2019-01-09T14:45:26.550Z,5.20
2019-01-09T14:48:14.372Z,3.63
2019-01-09T14:51:01.650Z,5.80
2019-01-09T14:53:49.537Z,4.30
2019-01-09T14:56:36.903Z,4.57
2019-01-09T14:59:24.335Z,3.77
2019-01-09T15:02:11.914Z,4.43
2019-01-09T15:04:59.234Z,7.43
2019-01-09T15:07:46.576Z,6.87
2019-01-09T15:10:34.291Z,2.90
2019-01-09T15:13:21.947Z,5.07
2019-01-09T15:16:09.907Z,2.43
2019-01-09T15:18:57.477Z,5.37
2019-01-09T15:21:44.928Z,10.37
2019-01-09T15:24:33.552Z,4.77
2019-01-09T15:27:20.942Z,3.17
2019-01-09T15:30:12.493Z,3.60
2019-01-09T15:33:00.674Z,3.17
2019-01-09T15:35:48.600Z,3.17
2019-01-09T15:38:36.157Z,2.27
2019-01-09T15:41:23.609Z,5.20
2019-01-09T15:44:11.154Z,5.53
2019-01-09T15:46:58.450Z,4.37
2019-01-09T15:49:46.489Z,3.10
2019-01-09T15:52:34.089Z,6.67
2019-01-09T15:55:22.017Z,7.03
2019-01-09T15:58:09.800Z,6.00
2019-01-09T16:00:58.608Z,5.80
2019-01-09T16:03:46.063Z,3.83
2019-01-09T16:06:33.550Z,3.27
2019-01-09T16:09:42.544Z,7.93
2019-01-09T16:12:33.556Z,7.67
2019-01-09T16:15:21.581Z,27.03
2019-01-09T16:18:09.268Z,15.97
2019-01-09T16:20:56.806Z,9.27
2019-01-09T16:23:44.193Z,7.37
2019-01-09T16:26:31.689Z,8.23
2019-01-09T16:29:19.250Z,6.60
2019-01-09T16:32:06.781Z,5.30
2019-01-09T16:34:54.256Z,6.70
2019-01-09T16:37:41.760Z,9.17
2019-01-09T16:40:29.610Z,6.37
2019-01-09T16:43:17.298Z,8.70
2019-01-09T16:46:05.500Z,9.30
2019-01-09T16:48:53.219Z,15.17
2019-01-09T16:51:40.299Z,8.27
2019-01-09T16:54:27.762Z,15.20
2019-01-09T16:57:14.906Z,5.90
2019-01-09T17:00:02.316Z,9.43
2019-01-09T17:02:49.969Z,7.50
2019-01-09T17:05:37.222Z,14.13
2019-01-09T17:08:24.792Z,14.30
2019-01-09T17:11:12.679Z,9.50
2019-01-09T17:14:00.245Z,14.07
2019-01-09T17:16:48.861Z,11.67
2019-01-09T17:19:36.772Z,14.27
2019-01-09T17:22:27.701Z,8.83
2019-01-09T17:25:16.423Z,10.63
2019-01-09T17:28:04.910Z,9.33
2019-01-09T17:30:57.034Z,8.67
2019-01-09T17:33:45.288Z,12.63
2019-01-09T17:36:47.654Z,10.30
2019-01-09T17:39:44.176Z,8.17
2019-01-09T17:42:32.620Z,7.50
2019-01-09T17:45:20.569Z,8.17
2019-01-09T17:48:08.686Z,9.43
2019-01-09T17:50:56.162Z,6.60
2019-01-09T17:53:43.663Z,6.37
2019-01-09T17:56:31.128Z,19.60
2019-01-09T17:59:18.385Z,28.73
2019-01-09T18:02:06.497Z,28.80
2019-01-09T18:04:54.509Z,39.23
2019-01-09T18:07:42.714Z,14.10
2019-01-09T18:10:30.416Z,15.63
2019-01-09T18:13:18.198Z,16.40
2019-01-09T18:16:07.861Z,12.43
2019-01-09T18:18:55.527Z,8.37
2019-01-09T18:21:43.014Z,7.80
2019-01-09T18:24:31.001Z,12.50
2019-01-09T18:27:18.430Z,11.93
2019-01-09T18:30:10.262Z,10.30
2019-01-09T18:33:04.499Z,5.77
2019-01-09T18:36:18.754Z,11.80
2019-01-09T18:39:48.433Z,7.47
2019-01-09T18:43:13.877Z,7.67
2019-01-09T18:46:20.642Z,12.37
2019-01-09T18:49:36.154Z,11.10
2019-01-09T18:52:44.355Z,11.87
2019-01-09T18:55:32.013Z,13.87
2019-01-09T18:58:20.737Z,12.87
2019-01-09T19:01:08.439Z,13.53
2019-01-09T19:03:55.716Z,10.87
2019-01-09T19:06:43.486Z,7.30
2019-01-09T19:09:31.122Z,7.30
2019-01-09T19:12:18.848Z,8.80
2019-01-09T19:15:07.433Z,6.37
2019-01-09T19:17:55.308Z,8.30
2019-01-09T19:20:43.653Z,15.17
2019-01-09T19:23:31.420Z,14.23
2019-01-09T19:26:19.477Z,9.07
2019-01-09T19:29:13.166Z,11.13
2019-01-09T19:32:09.039Z,12.13
2019-01-09T19:34:58.499Z,8.87
2019-01-09T19:37:47.471Z,10.97
2019-01-09T19:40:37.447Z,13.97
2019-01-09T19:43:30.136Z,13.07
2019-01-09T19:46:19.608Z,15.13
2019-01-09T19:49:11.690Z,11.53
2019-01-09T19:52:01.907Z,14.33
2019-01-09T19:54:59.179Z,18.43
2019-01-09T19:58:02.360Z,19.53
2019-01-09T20:00:55.298Z,16.87
2019-01-09T20:04:18.155Z,14.40
2019-01-09T20:07:24.945Z,10.93
2019-01-09T20:10:13.046Z,14.40
2019-01-09T20:13:07.203Z,12.20
2019-01-09T20:19:52.192Z,14.47
2019-01-09T20:26:39.209Z,17.63
2019-01-09T20:30:02.386Z,14.57
2019-01-09T20:33:47.224Z,11.57
2019-01-09T20:45:12.905Z,18.90
2019-01-09T20:48:22.247Z,20.77
2019-01-09T20:51:50.296Z,20.93
2019-01-09T20:55:06.487Z,13.60
2019-01-09T20:57:45.644Z,23.00
2019-01-09T21:00:43.988Z,13.53
2019-01-09T21:03:33.926Z,12.40
2019-01-09T21:06:47.678Z,11.30
2019-01-09T21:13:40.651Z,15.63
2019-01-09T21:17:07.031Z,16.00
2019-01-09T21:20:34.342Z,11.60
2019-01-09T21:23:22.975Z,11.23
2019-01-09T21:26:33.609Z,8.60
2019-01-09T21:29:25.446Z,12.83
2019-01-09T21:32:20.000Z,11.77
2019-01-09T21:35:13.612Z,9.97
2019-01-09T21:38:03.579Z,10.50
2019-01-09T21:40:51.570Z,8.37
2019-01-09T21:43:40.371Z,11.10
2019-01-09T21:46:29.881Z,12.20
2019-01-09T21:49:19.442Z,9.13
2019-01-09T21:52:09.319Z,8.20
2019-01-09T21:55:01.749Z,11.53
2019-01-09T21:58:25.229Z,8.37
2019-01-09T22:00:51.039Z,6.73
2019-01-09T22:03:51.682Z,5.23
2019-01-09T22:06:54.001Z,7.43
2019-01-09T22:09:58.328Z,8.77
2019-01-09T22:16:31.381Z,12.67
2019-01-09T22:19:55.216Z,11.67
2019-01-09T22:22:44.845Z,6.80
2019-01-09T22:29:05.362Z,9.40
2019-01-09T22:31:53.106Z,8.63
2019-01-09T22:34:40.830Z,7.10
2019-01-09T22:37:28.303Z,10.37
2019-01-09T22:40:17.044Z,5.53
2019-01-09T22:43:04.486Z,8.93
2019-01-09T22:45:51.858Z,6.43
2019-01-09T22:48:40.113Z,8.27
2019-01-09T22:51:27.942Z,9.30
2019-01-09T22:54:15.041Z,6.80
2019-01-09T22:57:02.235Z,4.83
2019-01-09T22:59:49.701Z,8.07
2019-01-09T23:02:37.124Z,7.17
2019-01-09T23:05:25.142Z,5.67
2019-01-09T23:08:13.104Z,10.20
2019-01-09T23:11:01.082Z,8.47
2019-01-09T23:13:48.545Z,8.23
2019-01-09T23:16:35.645Z,7.97
2019-01-09T23:19:23.720Z,9.60
2019-01-09T23:22:11.642Z,12.10
2019-01-09T23:24:59.257Z,9.03
2019-01-09T23:27:46.918Z,10.03
2019-01-09T23:30:34.784Z,11.47
2019-01-09T23:33:22.464Z,8.83
2019-01-09T23:36:10.203Z,9.30
2019-01-09T23:38:57.602Z,14.13
2019-01-09T23:41:45.257Z,12.30
2019-01-09T23:44:32.695Z,10.30
2019-01-09T23:47:20.108Z,10.13
2019-01-09T23:50:08.284Z,9.27
2019-01-09T23:52:56.277Z,13.67
2019-01-09T23:55:43.772Z,9.30
2019-01-09T23:58:31.259Z,10.10
